Time;durP1;ratioP1;P1;durP2;ratioP2;P2;SDS_P1;SDS_P2;PMS_P1;PMS_P2;Temp;Humidity;BMP_temperature;BMP_pressure;BME280_temperature;BME280_humidity;BME280_pressure;Samples;Min_cycle;Max_cycle;Signal;HPM_P1;HPM_P2
2022/01/31 14:15:07;;;;;;;5.88;2.33;;;;;;;;;;4890873;27;20670;-69
2022/01/31 14:17:33;;;;;;;6.07;2.30;;;;;;;;;;5092646;28;20044;-64
2022/01/31 14:20:19;;;;;;;7.22;2.42;;;;;;;;;;5078994;27;20652;-71
2022/01/31 14:22:45;;;;;;;5.57;1.95;;;;;;;;;;5054085;28;20500;-66
2022/01/31 14:25:12;;;;;;;7.93;1.83;;;;;;;;;;5050345;28;20439;-67
2022/01/31 14:50:42;;;;;;;2.53;1.50;;;;;;;;;;5086795;28;20659;-57
2022/01/31 14:53:09;;;;;;;5.20;1.90;;;;;;;;;;5069370;28;20049;-59
2022/01/31 14:55:38;;;;;;;3.67;1.92;;;;;;;;;;5067795;28;20136;-57
2022/01/31 14:58:04;;;;;;;3.80;1.77;;;;;;;;;;5068618;28;20029;-57
2022/01/31 15:00:30;;;;;;;4.38;1.60;;;;;;;;;;5074134;28;20036;-58
2022/01/31 15:02:56;;;;;;;3.60;1.73;;;;;;;;;;5074203;28;20063;-58
2022/01/31 15:05:22;;;;;;;3.20;1.67;;;;;;;;;;5066627;28;20065;-62
2022/01/31 15:07:49;;;;;;;5.13;1.90;;;;;;;;;;5065835;28;20065;-62
2022/01/31 15:10:15;;;;;;;6.03;1.90;;;;;;;;;;5065297;28;20029;-62
2022/01/31 15:12:43;;;;;;;4.38;1.88;;;;;;;;;;5066319;28;20060;-62
2022/01/31 15:15:10;;;;;;;5.00;2.10;;;;;;;;;;5066803;28;20065;-62
2022/01/31 15:17:37;;;;;;;6.38;1.70;;;;;;;;;;5062625;28;20045;-59
2022/01/31 15:20:09;;;;;;;3.65;1.77;;;;;;;;;;5063402;28;20049;-61
2022/01/31 15:22:35;;;;;;;5.60;2.13;;;;;;;;;;5066579;28;20045;-61
2022/01/31 15:25:01;;;;;;;3.08;2.03;;;;;;;;;;5082058;28;20040;-61
2022/01/31 15:27:27;;;;;;;7.13;2.13;;;;;;;;;;5071926;28;20183;-60
2022/01/31 15:29:53;;;;;;;5.88;2.30;;;;;;;;;;5068734;28;20080;-63
2022/01/31 15:32:19;;;;;;;6.78;2.15;;;;;;;;;;5056552;28;20033;-65
2022/01/31 15:34:46;;;;;;;4.70;1.98;;;;;;;;;;5050410;28;20037;-62
2022/01/31 15:37:12;;;;;;;6.82;2.20;;;;;;;;;;5051793;28;20479;-62
2022/01/31 15:39:38;;;;;;;6.28;1.92;;;;;;;;;;5071687;28;20064;-61
2022/01/31 15:42:06;;;;;;;5.20;1.90;;;;;;;;;;5073281;28;20033;-61
2022/01/31 15:44:41;;;;;;;6.35;2.00;;;;;;;;;;5072261;28;20040;-62
2022/01/31 15:47:08;;;;;;;5.22;2.10;;;;;;;;;;5072196;28;20076;-64
2022/01/31 15:49:34;;;;;;;5.07;2.03;;;;;;;;;;5072860;28;20065;-62
2022/01/31 15:52:00;;;;;;;5.00;1.90;;;;;;;;;;5072504;28;20108;-62
2022/01/31 15:54:26;;;;;;;5.72;2.13;;;;;;;;;;5071924;28;20096;-62
2022/01/31 15:56:56;;;;;;;4.22;2.00;;;;;;;;;;5057420;28;20044;-64
2022/01/31 15:59:23;;;;;;;3.67;1.85;;;;;;;;;;5071626;28;20029;-64
2022/01/31 16:01:49;;;;;;;6.03;2.10;;;;;;;;;;5058056;28;20105;-63
2022/01/31 16:04:15;;;;;;;4.40;1.95;;;;;;;;;;5058785;28;20048;-61
2022/01/31 16:06:41;;;;;;;2.40;1.60;;;;;;;;;;5058487;28;20025;-64
2022/01/31 16:09:08;;;;;;;3.85;2.10;;;;;;;;;;5058126;28;20041;-63
2022/01/31 16:11:34;;;;;;;3.60;1.85;;;;;;;;;;5053865;28;20047;-65
2022/01/31 16:14:00;;;;;;;5.07;1.67;;;;;;;;;;5037295;28;20033;-67
2022/01/31 16:16:26;;;;;;;4.70;1.83;;;;;;;;;;5049444;28;20028;-67
2022/01/31 16:18:53;;;;;;;4.25;1.63;;;;;;;;;;5032314;28;20068;-67
2022/01/31 16:21:19;;;;;;;6.72;2.45;;;;;;;;;;5031645;28;20116;-67
2022/01/31 16:23:45;;;;;;;4.35;2.70;;;;;;;;;;5025808;28;20046;-67
2022/01/31 16:26:12;;;;;;;4.38;2.58;;;;;;;;;;5017909;28;20034;-68
2022/01/31 16:28:38;;;;;;;8.15;3.30;;;;;;;;;;5032994;28;20211;-67
2022/01/31 16:31:04;;;;;;;6.00;2.90;;;;;;;;;;5033076;28;20061;-66
2022/01/31 16:33:30;;;;;;;5.85;3.08;;;;;;;;;;5031799;28;20116;-68
2022/01/31 16:35:57;;;;;;;7.10;3.28;;;;;;;;;;5033700;28;20045;-68
2022/01/31 16:38:24;;;;;;;7.60;3.45;;;;;;;;;;5032626;28;20037;-67
2022/01/31 16:40:50;;;;;;;5.20;2.70;;;;;;;;;;5014154;28;20465;-67
2022/01/31 16:43:17;;;;;;;5.30;3.05;;;;;;;;;;5028267;28;20042;-66
2022/01/31 16:45:43;;;;;;;6.40;3.25;;;;;;;;;;5025116;28;20037;-67
2022/01/31 16:48:10;;;;;;;7.53;3.65;;;;;;;;;;5028781;28;20052;-68
2022/01/31 16:50:37;;;;;;;6.90;3.67;;;;;;;;;;5033267;28;20065;-67
2022/01/31 16:53:06;;;;;;;6.65;3.63;;;;;;;;;;5035577;28;20053;-67
2022/01/31 16:55:32;;;;;;;5.45;2.60;;;;;;;;;;5036777;28;20400;-68
2022/01/31 16:57:59;;;;;;;5.15;2.72;;;;;;;;;;5028772;28;20188;-68
2022/01/31 17:00:26;;;;;;;5.65;2.30;;;;;;;;;;5031446;28;20045;-69
2022/01/31 17:02:52;;;;;;;5.75;2.50;;;;;;;;;;5037665;28;20460;-74
2022/01/31 17:05:18;;;;;;;7.07;2.40;;;;;;;;;;5034129;28;20703;-67
2022/01/31 17:07:45;;;;;;;6.82;2.25;;;;;;;;;;5051681;28;20052;-70
2022/01/31 17:10:11;;;;;;;4.38;2.00;;;;;;;;;;5038560;28;20472;-64
2022/01/31 17:12:37;;;;;;;4.28;2.20;;;;;;;;;;5037169;28;20041;-68
2022/01/31 17:15:05;;;;;;;3.65;2.13;;;;;;;;;;5022778;28;20061;-69
2022/01/31 17:17:31;;;;;;;4.10;2.00;;;;;;;;;;5030439;28;20046;-70
2022/01/31 17:19:57;;;;;;;4.70;2.20;;;;;;;;;;5038567;28;20041;-64
2022/01/31 17:22:24;;;;;;;3.95;2.00;;;;;;;;;;5040249;28;20136;-67
2022/01/31 17:24:50;;;;;;;3.92;1.90;;;;;;;;;;5042606;28;20081;-66
2022/01/31 17:27:18;;;;;;;4.82;2.30;;;;;;;;;;5040175;28;20046;-72
2022/01/31 17:29:44;;;;;;;7.60;2.22;;;;;;;;;;5041739;28;20433;-68
2022/01/31 17:32:10;;;;;;;4.28;1.80;;;;;;;;;;5037176;28;20041;-66
2022/01/31 17:34:37;;;;;;;5.30;2.15;;;;;;;;;;5036186;28;20049;-66
2022/01/31 17:37:04;;;;;;;6.85;2.40;;;;;;;;;;5030631;28;20049;-62
2022/01/31 17:39:34;;;;;;;7.95;2.53;;;;;;;;;;5029261;28;20057;-64
2022/01/31 17:42:03;;;;;;;6.25;2.40;;;;;;;;;;5033441;28;20041;-64
2022/01/31 17:44:29;;;;;;;8.23;2.72;;;;;;;;;;5032110;28;20046;-66
2022/01/31 17:46:55;;;;;;;7.10;2.53;;;;;;;;;;5030745;28;20404;-66
2022/01/31 17:49:21;;;;;;;7.97;2.80;;;;;;;;;;5029132;28;20515;-64
2022/01/31 17:51:47;;;;;;;5.85;2.75;;;;;;;;;;5021039;28;20057;-65
2022/01/31 17:54:13;;;;;;;5.55;2.50;;;;;;;;;;5013282;28;20588;-65
2022/01/31 17:56:39;;;;;;;7.55;2.58;;;;;;;;;;5022190;28;20045;-70
2022/01/31 17:59:07;;;;;;;8.80;3.08;;;;;;;;;;5062250;22;20127;-66
2022/01/31 18:01:33;;;;;;;5.30;2.65;;;;;;;;;;5021627;28;20057;-67
2022/01/31 18:03:59;;;;;;;6.20;2.63;;;;;;;;;;5037330;28;20064;-69
2022/01/31 18:06:25;;;;;;;7.25;2.85;;;;;;;;;;5032261;28;20045;-68
2022/01/31 18:08:51;;;;;;;6.38;2.78;;;;;;;;;;5030888;28;20596;-69
2022/01/31 18:11:17;;;;;;;7.05;2.78;;;;;;;;;;5033218;28;20121;-69
2022/01/31 18:13:43;;;;;;;7.93;2.90;;;;;;;;;;5028159;28;20048;-69
2022/01/31 18:16:09;;;;;;;6.53;2.65;;;;;;;;;;5017702;28;20111;-69
2022/01/31 18:18:35;;;;;;;6.57;2.72;;;;;;;;;;5027131;28;20068;-69
2022/01/31 18:21:01;;;;;;;8.38;2.88;;;;;;;;;;5030723;28;20037;-69
2022/01/31 18:23:27;;;;;;;7.90;2.60;;;;;;;;;;5032120;28;20500;-68
2022/01/31 18:25:53;;;;;;;8.93;2.80;;;;;;;;;;5027388;28;20409;-69
2022/01/31 18:28:20;;;;;;;8.25;3.03;;;;;;;;;;5029787;28;20132;-69
2022/01/31 18:30:49;;;;;;;5.07;2.70;;;;;;;;;;5020659;28;20057;-69
2022/01/31 18:33:15;;;;;;;7.18;2.83;;;;;;;;;;5026333;28;20049;-69
2022/01/31 18:35:43;;;;;;;6.63;3.10;;;;;;;;;;5024179;28;20404;-69
2022/01/31 18:38:10;;;;;;;8.05;3.00;;;;;;;;;;5032037;28;20045;-69
2022/01/31 18:40:37;;;;;;;7.55;3.03;;;;;;;;;;5029490;28;20081;-69
2022/01/31 18:43:04;;;;;;;7.80;2.97;;;;;;;;;;5028875;28;20076;-69
2022/01/31 18:45:30;;;;;;;8.52;2.92;;;;;;;;;;5020902;28;20104;-69
2022/01/31 18:47:57;;;;;;;7.57;2.90;;;;;;;;;;5012238;28;20049;-69
2022/01/31 18:50:25;;;;;;;9.02;2.97;;;;;;;;;;5028688;28;20045;-69
2022/01/31 18:52:52;;;;;;;7.20;2.72;;;;;;;;;;5035730;28;20361;-69
2022/01/31 18:55:18;;;;;;;9.20;2.78;;;;;;;;;;5018837;28;20192;-69
2022/01/31 18:57:44;;;;;;;8.88;2.90;;;;;;;;;;5024496;28;20420;-70
2022/01/31 19:00:11;;;;;;;6.45;2.92;;;;;;;;;;5022169;28;20141;-70
2022/01/31 19:02:37;;;;;;;6.15;2.63;;;;;;;;;;5007077;28;20057;-69
2022/01/31 19:05:03;;;;;;;7.97;2.90;;;;;;;;;;5007603;28;20132;-70
2022/01/31 19:07:29;;;;;;;7.28;2.78;;;;;;;;;;5012970;28;20499;-70
2022/01/31 19:09:56;;;;;;;6.43;2.75;;;;;;;;;;5016195;28;20045;-70
2022/01/31 19:12:33;;;;;;;6.18;2.72;;;;;;;;;;5018745;28;20081;-71
2022/01/31 19:17:27;;;;;;;6.97;2.90;;;;;;;;;;5012113;28;20524;-69
2022/01/31 19:19:53;;;;;;;7.22;2.83;;;;;;;;;;5023682;28;20068;-70
2022/01/31 19:22:19;;;;;;;7.63;2.97;;;;;;;;;;5013219;28;20416;-69
2022/01/31 19:24:45;;;;;;;7.32;2.88;;;;;;;;;;5014995;28;20058;-69
2022/01/31 19:27:12;;;;;;;7.47;2.83;;;;;;;;;;5014916;28;20041;-69
2022/01/31 19:29:38;;;;;;;6.28;2.88;;;;;;;;;;5007968;28;20057;-70
2022/01/31 19:32:04;;;;;;;9.35;2.95;;;;;;;;;;5012737;28;20045;-69
2022/01/31 19:34:31;;;;;;;5.93;2.55;;;;;;;;;;5013024;28;20121;-70
2022/01/31 19:36:57;;;;;;;5.55;2.78;;;;;;;;;;5014551;28;20208;-70
2022/01/31 19:44:37;;;;;;;7.07;2.85;;;;;;;;;;5015170;28;20157;-69
2022/01/31 19:47:04;;;;;;;5.60;2.60;;;;;;;;;;5014953;28;20042;-69
2022/01/31 19:49:30;;;;;;;6.60;3.15;;;;;;;;;;5013364;28;20042;-69
2022/01/31 19:51:56;;;;;;;7.75;2.88;;;;;;;;;;5016024;28;20060;-69
2022/01/31 19:54:24;;;;;;;7.78;2.67;;;;;;;;;;5013900;28;20061;-70
2022/01/31 19:56:50;;;;;;;10.07;2.70;;;;;;;;;;5040699;28;20107;-70
2022/01/31 19:59:16;;;;;;;9.05;3.22;;;;;;;;;;5015895;28;20046;-70
2022/01/31 20:01:42;;;;;;;6.50;2.85;;;;;;;;;;5013947;28;20164;-69
2022/01/31 20:04:08;;;;;;;6.10;2.78;;;;;;;;;;5013394;28;20053;-69
2022/01/31 20:06:34;;;;;;;8.63;3.13;;;;;;;;;;5002178;28;20145;-69
2022/01/31 20:09:08;;;;;;;7.25;2.90;;;;;;;;;;5013996;28;20049;-70
2022/01/31 20:11:35;;;;;;;6.43;2.70;;;;;;;;;;5014863;28;20508;-70
2022/01/31 20:14:01;;;;;;;7.35;2.90;;;;;;;;;;5014324;28;20042;-69
2022/01/31 20:16:29;;;;;;;7.60;3.00;;;;;;;;;;5014436;28;20109;-69
2022/01/31 20:18:56;;;;;;;6.43;3.00;;;;;;;;;;5012275;28;20073;-69
2022/01/31 20:21:23;;;;;;;6.90;2.58;;;;;;;;;;5014364;28;20040;-69
2022/01/31 20:23:51;;;;;;;5.13;2.55;;;;;;;;;;5005782;28;20042;-69
2022/01/31 20:26:17;;;;;;;6.40;2.58;;;;;;;;;;4994145;28;20056;-69
2022/01/31 20:28:45;;;;;;;5.43;2.53;;;;;;;;;;5009530;28;20050;-69
2022/01/31 20:31:12;;;;;;;6.40;2.60;;;;;;;;;;5014342;28;20053;-69
2022/01/31 20:33:39;;;;;;;7.72;2.75;;;;;;;;;;5013461;28;20049;-69
2022/01/31 20:36:07;;;;;;;6.80;2.53;;;;;;;;;;5014039;28;20068;-70
2022/01/31 20:38:36;;;;;;;6.93;2.42;;;;;;;;;;5012594;28;20056;-69
2022/01/31 20:43:37;;;;;;;5.97;2.40;;;;;;;;;;5013558;28;20054;-69
2022/01/31 20:46:03;;;;;;;5.07;2.05;;;;;;;;;;5013951;28;20049;-69
2022/01/31 20:48:29;;;;;;;6.53;2.40;;;;;;;;;;5014391;28;20038;-70
2022/01/31 20:50:55;;;;;;;6.18;2.40;;;;;;;;;;5014412;28;20345;-69
2022/01/31 20:53:21;;;;;;;5.40;2.40;;;;;;;;;;5013858;28;20060;-70
2022/01/31 20:55:47;;;;;;;7.05;2.65;;;;;;;;;;5014255;28;20046;-69
2022/01/31 20:58:14;;;;;;;6.03;2.40;;;;;;;;;;5011752;28;20454;-69
2022/01/31 21:00:46;;;;;;;4.88;2.00;;;;;;;;;;5011869;28;20532;-69
2022/01/31 21:03:13;;;;;;;5.32;2.33;;;;;;;;;;5011719;28;20045;-69
2022/01/31 21:05:39;;;;;;;6.05;2.35;;;;;;;;;;5014166;28;20048;-69
2022/01/31 21:08:06;;;;;;;6.43;2.55;;;;;;;;;;5013983;28;20060;-70
2022/01/31 21:10:33;;;;;;;4.75;2.47;;;;;;;;;;5017141;28;20100;-69
2022/01/31 21:13:00;;;;;;;5.30;2.30;;;;;;;;;;5019005;28;20082;-70
2022/01/31 21:15:26;;;;;;;6.80;2.40;;;;;;;;;;5016318;28;20159;-69
2022/01/31 21:17:52;;;;;;;6.20;2.10;;;;;;;;;;5019947;28;20050;-69
2022/01/31 21:20:20;;;;;;;4.57;2.10;;;;;;;;;;5012261;28;20042;-70
2022/01/31 21:22:48;;;;;;;5.30;2.33;;;;;;;;;;5012333;28;20358;-71
2022/01/31 21:25:14;;;;;;;5.22;2.47;;;;;;;;;;5016183;28;20088;-71
2022/01/31 21:27:46;;;;;;;6.35;2.35;;;;;;;;;;5015440;28;20052;-71
2022/01/31 21:30:13;;;;;;;5.45;2.28;;;;;;;;;;5020812;28;20073;-71
2022/01/31 21:32:39;;;;;;;6.93;2.33;;;;;;;;;;5028598;28;20133;-71
2022/01/31 21:35:08;;;;;;;5.20;2.22;;;;;;;;;;5012949;28;20408;-70
2022/01/31 21:37:34;;;;;;;5.15;2.25;;;;;;;;;;5024685;28;20053;-69
2022/01/31 21:40:00;;;;;;;9.18;2.75;;;;;;;;;;5029537;28;20370;-70
2022/01/31 21:42:26;;;;;;;6.53;2.15;;;;;;;;;;5020852;28;20369;-69
